Time;durP1;ratioP1;P1;durP2;ratioP2;P2;SDS_P1;SDS_P2;PMS_P1;PMS_P2;Temp;Humidity;BMP_temperature;BMP_pressure;BME280_temperature;BME280_humidity;BME280_pressure;Samples;Min_cycle;Max_cycle;Signal;HPM_P1;HPM_P2
2022/02/04 00:02:01;;;;;;;12.13;6.50;;;2.90;99.90;;;;;;4934420;28;20155;-50
2022/02/04 00:24:51;;;;;;;10.27;5.30;;;2.70;99.90;;;;;;4909548;29;20095;-49
2022/02/04 00:27:21;;;;;;;7.65;4.90;;;2.60;99.90;;;;;;4907918;29;20095;-49
2022/02/04 00:30:12;;;;;;;8.77;4.88;;;2.60;99.90;;;;;;4901088;29;20040;-50
2022/02/04 00:32:40;;;;;;;10.32;5.57;;;2.60;99.90;;;;;;4893332;29;20050;-50
2022/02/04 00:40:22;;;;;;;12.65;6.82;;;2.80;99.90;;;;;;4938914;29;20135;-48
2022/02/04 00:42:50;;;;;;;8.60;5.15;;;2.90;99.90;;;;;;4947204;29;20035;-47
2022/02/04 00:45:25;;;;;;;10.90;5.78;;;2.90;99.90;;;;;;4953070;29;20043;-48
2022/02/04 00:47:58;;;;;;;9.43;5.47;;;2.80;99.90;;;;;;5021968;28;20041;-48
2022/02/04 00:50:33;;;;;;;15.13;6.40;;;2.90;99.90;;;;;;5073226;28;20039;-49
2022/02/04 00:53:26;;;;;;;8.63;5.22;;;2.70;99.90;;;;;;5073072;28;20036;-47
2022/02/04 00:56:03;;;;;;;10.43;5.00;;;2.70;99.90;;;;;;5067316;28;20043;-48
2022/02/04 01:28:45;;;;;;;10.18;5.80;;;2.50;99.90;;;;;;5009007;28;20443;-47
2022/02/04 01:31:14;;;;;;;12.23;7.30;;;2.40;99.90;;;;;;5031501;28;20033;-48
2022/02/04 01:33:40;;;;;;;11.63;7.78;;;2.30;99.90;;;;;;5031246;28;20052;-46
2022/02/04 01:36:06;;;;;;;11.70;8.38;;;2.30;99.90;;;;;;5031308;28;20037;-47
2022/02/04 01:38:32;;;;;;;12.05;7.07;;;2.30;99.90;;;;;;5015179;28;20610;-47
2022/02/04 01:40:59;;;;;;;9.95;6.38;;;2.40;99.90;;;;;;5013032;28;20085;-49
2022/02/04 01:43:25;;;;;;;11.48;7.13;;;2.50;99.90;;;;;;4991963;28;20088;-47
2022/02/04 01:45:56;;;;;;;11.95;7.32;;;2.40;99.90;;;;;;4991944;28;20052;-48
2022/02/04 01:48:22;;;;;;;10.18;6.15;;;2.40;99.90;;;;;;4991643;28;20065;-49
2022/02/04 01:50:50;;;;;;;10.75;6.13;;;2.50;99.90;;;;;;4991574;28;20170;-47
2022/02/04 01:53:17;;;;;;;12.85;7.32;;;;;;;;;;4991428;28;20486;-48
2022/02/04 01:55:45;;;;;;;16.05;7.43;;;2.70;99.90;;;;;;4992249;28;20121;-47
2022/02/04 01:58:11;;;;;;;10.23;6.30;;;;;;;;;;4991868;28;20105;-50
2022/02/04 02:00:38;;;;;;;14.30;7.10;;;2.40;99.90;;;;;;5002733;28;20139;-46
2022/02/04 02:03:08;;;;;;;11.95;7.65;;;2.50;99.90;;;;;;5003253;28;20658;-48
2022/02/04 02:05:35;;;;;;;10.70;5.70;;;2.50;99.90;;;;;;5011302;28;20033;-49
2022/02/04 02:08:05;;;;;;;9.68;6.15;;;2.50;99.90;;;;;;5007590;28;20049;-49
2022/02/04 02:10:31;;;;;;;12.15;6.47;;;2.60;99.90;;;;;;5010433;28;20074;-49
2022/02/04 02:57:57;;;;;;;17.65;8.85;;;2.30;99.90;;;;;;5021595;28;20055;-49
2022/02/04 03:02:50;;;;;;;20.23;10.63;;;2.20;99.90;;;;;;5070653;28;20032;-47
2022/02/04 03:05:16;;;;;;;20.75;11.57;;;2.30;99.90;;;;;;5068584;28;20055;-49
2022/02/04 03:07:42;;;;;;;19.60;10.00;;;2.40;99.90;;;;;;5073722;28;20068;-48
2022/02/04 03:10:08;;;;;;;14.98;8.85;;;2.60;99.90;;;;;;5014030;28;20121;-48
2022/02/04 03:12:36;;;;;;;22.25;11.20;;;2.70;99.90;;;;;;4955965;28;20047;-49
2022/02/04 03:15:02;;;;;;;20.77;10.00;;;2.60;99.90;;;;;;4956523;28;20043;-50
2022/02/04 03:17:28;;;;;;;15.10;8.75;;;2.80;99.90;;;;;;4924895;28;20515;-49
2022/02/04 03:19:58;;;;;;;15.30;7.75;;;2.70;99.90;;;;;;4956110;28;20050;-50
2022/02/04 03:22:24;;;;;;;12.02;7.22;;;2.80;99.90;;;;;;4956693;28;20488;-49
2022/02/04 03:24:57;;;;;;;14.23;7.88;;;2.80;99.90;;;;;;4953908;28;20099;-49
2022/02/04 03:27:31;;;;;;;12.63;6.78;;;3.10;99.90;;;;;;4954561;28;20090;-46
2022/02/04 03:30:24;;;;;;;12.10;6.20;;;2.60;99.90;;;;;;4941232;29;20035;-47
2022/02/04 03:32:49;;;;;;;11.27;5.35;;;2.40;99.90;;;;;;4929407;28;20040;-47
2022/02/04 03:35:19;;;;;;;10.30;5.63;;;2.20;99.90;;;;;;4956417;28;20050;-48
2022/02/04 03:37:45;;;;;;;13.95;6.65;;;2.20;99.90;;;;;;4956196;28;20146;-47
2022/02/04 03:40:12;;;;;;;8.50;5.88;;;2.10;99.90;;;;;;4961770;28;20509;-49
2022/02/04 03:42:37;;;;;;;12.10;7.40;;;2.00;99.90;;;;;;5017865;28;20029;-48
2022/02/04 03:45:04;;;;;;;12.98;8.45;;;1.90;99.90;;;;;;5071857;28;20029;-48
2022/02/04 03:47:29;;;;;;;12.93;8.10;;;2.10;99.90;;;;;;5072793;28;20032;-48
2022/02/04 03:49:55;;;;;;;11.07;7.32;;;2.10;99.90;;;;;;5073892;28;20024;-49
2022/02/04 03:52:21;;;;;;;15.55;8.43;;;2.10;99.90;;;;;;5073089;28;20056;-50
2022/02/04 03:54:46;;;;;;;14.00;8.13;;;2.30;99.90;;;;;;5038056;28;20033;-47
2022/02/04 03:57:12;;;;;;;17.52;8.15;;;2.50;99.90;;;;;;5072983;28;20426;-49
2022/02/04 03:59:38;;;;;;;12.40;8.02;;;2.50;99.90;;;;;;5071091;28;20043;-49
2022/02/04 04:02:04;;;;;;;17.50;10.48;;;;;;;;;;5069719;28;20037;-47
2022/02/04 04:04:33;;;;;;;20.10;10.85;;;2.80;99.90;;;;;;5054748;28;20043;-47
2022/02/04 04:06:59;;;;;;;16.27;9.27;;;3.00;99.90;;;;;;5074313;28;20047;-48
2022/02/04 04:09:26;;;;;;;18.50;10.23;;;3.10;99.90;;;;;;5070348;28;20036;-50
2022/02/04 04:11:52;;;;;;;13.95;7.93;;;;;;;;;;5071121;28;20074;-49
2022/02/04 04:14:18;;;;;;;14.23;7.97;;;3.10;99.90;;;;;;5075574;28;20071;-47
2022/02/04 04:16:46;;;;;;;15.57;8.73;;;2.90;99.90;;;;;;5072432;28;20116;-47
2022/02/04 04:19:12;;;;;;;13.13;8.00;;;2.90;99.90;;;;;;5073329;28;20033;-49
2022/02/04 04:21:39;;;;;;;20.73;10.00;;;;;;;;;;5073423;28;20037;-49
2022/02/04 04:24:05;;;;;;;16.75;9.65;;;2.90;99.90;;;;;;5071440;28;20027;-47
2022/02/04 04:26:30;;;;;;;13.70;7.90;;;2.90;99.90;;;;;;5032250;28;20128;-48
2022/02/04 04:28:56;;;;;;;11.32;7.13;;;3.20;99.90;;;;;;5073461;28;20064;-47
2022/02/04 04:31:22;;;;;;;12.30;6.93;;;;;;;;;;5032067;28;20087;-49
2022/02/04 04:33:48;;;;;;;15.82;8.25;;;3.10;99.90;;;;;;5057792;28;20032;-48
2022/02/04 04:36:14;;;;;;;12.00;7.65;;;;;;;;;;5074070;28;20039;-49
2022/02/04 04:38:53;;;;;;;13.07;7.75;;;3.50;99.90;;;;;;5075144;28;20368;-48
2022/02/04 05:29:58;;;;;;;15.35;7.65;;;2.60;99.90;;;;;;5069143;28;20075;-47
2022/02/04 05:32:23;;;;;;;11.63;7.68;;;2.50;99.90;;;;;;5070387;28;20479;-47
2022/02/04 05:34:50;;;;;;;12.20;6.72;;;2.50;99.90;;;;;;5072222;28;20024;-49
2022/02/04 05:37:19;;;;;;;13.25;7.40;;;2.60;99.90;;;;;;5069231;28;20033;-48
2022/02/04 05:39:58;;;;;;;11.40;7.00;;;2.60;99.90;;;;;;5069463;28;20064;-49
2022/02/04 05:42:28;;;;;;;11.43;6.47;;;2.60;99.90;;;;;;5050143;28;20523;-49
2022/02/04 05:45:02;;;;;;;16.48;7.95;;;2.50;99.90;;;;;;5074055;28;20040;-50
2022/02/04 05:47:29;;;;;;;19.10;6.85;;;2.50;99.90;;;;;;5067559;28;20041;-48
2022/02/04 05:52:58;;;;;;;12.93;7.90;;;2.60;99.90;;;;;;5063853;28;20055;-49
2022/02/04 05:55:52;;;;;;;14.02;8.45;;;2.50;99.90;;;;;;5071353;28;20032;-49
2022/02/04 06:24:15;;;;;;;19.98;12.10;;;2.30;99.90;;;;;;5070411;28;20039;-47
2022/02/04 06:26:41;;;;;;;15.63;9.68;;;2.50;99.90;;;;;;5042392;28;20033;-48
2022/02/04 06:29:07;;;;;;;15.90;10.27;;;2.30;99.90;;;;;;5068605;28;20024;-48
2022/02/04 06:31:34;;;;;;;21.08;9.73;;;2.30;99.90;;;;;;5070262;28;20027;-45
2022/02/04 06:34:00;;;;;;;24.30;14.35;;;;;;;;;;5024602;28;20475;-46
2022/02/04 06:36:26;;;;;;;24.23;14.68;;;;;;;;;;5070352;28;20040;-46
2022/02/04 06:38:52;;;;;;;23.05;13.50;;;;;;;;;;5041656;28;20124;-48
2022/02/04 06:41:19;;;;;;;24.33;14.30;;;7.20;99.90;;;;;;5068204;28;20068;-44
2022/02/04 06:43:45;;;;;;;20.63;14.32;;;8.30;99.90;;;;;;5066240;28;20033;-48
2022/02/04 06:46:11;;;;;;;25.35;14.70;;;;;;;;;;5054966;28;20032;-46
2022/02/04 06:48:37;;;;;;;23.83;15.00;;;;;;;;;;5062353;28;20028;-47
2022/02/04 06:51:03;;;;;;;22.52;15.00;;;;;;;;;;5067168;28;20044;-45
2022/02/04 06:53:29;;;;;;;44.92;25.02;;;;;;;;;;5069570;28;20109;-47
2022/02/04 06:55:55;;;;;;;86.40;38.90;;;14.60;91.50;;;;;;5051577;28;20068;-47
2022/02/04 06:58:21;;;;;;;38.67;25.45;;;14.70;89.90;;;;;;5032983;28;20064;-45
2022/02/04 07:00:47;;;;;;;31.33;20.05;;;;;;;;;;5068833;28;20063;-45
2022/02/04 07:03:13;;;;;;;21.48;16.15;;;14.70;89.10;;;;;;5050025;28;20036;-48
2022/02/04 07:05:43;;;;;;;22.58;15.00;;;14.60;86.40;;;;;;5068285;28;20032;-47
2022/02/04 07:08:16;;;;;;;21.10;13.73;;;;;;;;;;5031801;28;20064;-50
2022/02/04 07:13:42;;;;;;;21.55;13.00;;;14.00;82.40;;;;;;4952369;28;20050;-49
2022/02/04 07:21:36;;;;;;;25.50;14.40;;;9.20;91.90;;;;;;4968180;28;20077;-46
2022/02/04 07:24:02;;;;;;;20.67;13.43;;;9.20;92.50;;;;;;4964680;28;20507;-49
2022/02/04 07:26:30;;;;;;;20.60;13.23;;;10.30;93.10;;;;;;4969673;28;20023;-46
2022/02/04 07:29:00;;;;;;;22.73;14.57;;;12.00;90.80;;;;;;4972051;28;20455;-47
2022/02/04 07:31:28;;;;;;;18.17;12.45;;;13.10;90.30;;;;;;4970344;28;20143;-48
2022/02/04 07:34:08;;;;;;;23.38;13.70;;;13.30;86.60;;;;;;4969817;28;20069;-49
2022/02/04 07:41:50;;;;;;;27.25;18.20;;;14.50;84.10;;;;;;4963396;28;20047;-48
2022/02/04 07:44:17;;;;;;;;;;;14.70;85.40;;;;;;4969467;28;20070;-47
2022/02/04 07:46:43;;;;;;;28.33;16.23;;;15.20;83.60;;;;;;4969073;28;19906;-48
2022/02/04 07:49:10;;;;;;;21.75;15.32;;;15.00;83.60;;;;;;4968896;28;20038;-48
2022/02/04 07:51:36;;;;;;;25.48;16.85;;;14.70;81.10;;;;;;5059922;28;20119;-47
2022/02/04 07:54:02;;;;;;;26.52;19.20;;;14.70;81.90;;;;;;5073133;28;20119;-49
2022/02/04 07:56:28;;;;;;;26.65;19.67;;;15.00;81.70;;;;;;5069629;28;20428;-46
2022/02/04 07:58:59;;;;;;;24.70;17.95;;;15.70;82.70;;;;;;5049973;28;20036;-46
2022/02/04 08:01:29;;;;;;;18.83;14.27;;;17.40;80.80;;;;;;5071317;28;20464;-49
2022/02/04 08:04:02;;;;;;;16.42;12.82;;;18.20;78.60;;;;;;5070654;28;20032;-47
2022/02/04 08:06:31;;;;;;;15.82;11.27;;;18.60;78.70;;;;;;5071777;28;20516;-49
2022/02/04 08:14:17;;;;;;;33.38;23.13;;;14.90;76.90;;;;;;5072214;28;20506;-46
2022/02/04 08:24:58;;;;;;;15.88;11.75;;;13.50;81.90;;;;;;5069374;28;20039;-48
2022/02/04 08:27:50;;;;;;;15.00;11.02;;;14.70;81.00;;;;;;5037811;28;20094;-51
2022/02/04 08:36:21;;;;;;;15.32;11.65;;;18.50;76.70;;;;;;4963900;28;20061;-47
2022/02/04 08:52:08;;;;;;;15.32;9.25;;;12.70;79.30;;;;;;5002101;28;20550;-48
2022/02/04 08:54:39;;;;;;;13.48;7.28;;;12.90;81.30;;;;;;4990458;28;20418;-48
2022/02/04 09:00:06;;;;;;;13.63;8.45;;;13.00;80.20;;;;;;4991142;28;20045;-46
2022/02/04 09:02:38;;;;;;;22.52;11.90;;;13.00;80.70;;;;;;5012452;28;20064;-46
2022/02/04 09:05:06;;;;;;;11.63;8.52;;;13.40;80.40;;;;;;5030443;28;20073;-46
2022/02/04 09:07:45;;;;;;;12.20;8.23;;;13.30;79.50;;;;;;5027618;28;20049;-46
2022/02/04 09:10:13;;;;;;;16.73;11.07;;;12.70;79.50;;;;;;5029597;28;20029;-49
2022/02/04 09:20:45;;;;;;;19.92;13.98;;;12.40;82.10;;;;;;5071430;28;20098;-48
2022/02/04 09:23:11;;;;;;;16.15;9.57;;;12.60;82.00;;;;;;5067495;28;20032;-48
2022/02/04 09:25:37;;;;;;;13.52;8.88;;;13.00;81.80;;;;;;5073262;28;20020;-50
2022/02/04 09:28:03;;;;;;;21.85;14.55;;;13.40;81.60;;;;;;5034954;28;20086;-50
2022/02/04 09:30:29;;;;;;;12.38;7.63;;;13.40;81.20;;;;;;5068053;28;20427;-51
2022/02/04 09:32:55;;;;;;;11.10;7.95;;;13.40;80.10;;;;;;5066470;28;20054;-51
2022/02/04 09:35:24;;;;;;;18.10;12.00;;;13.40;81.50;;;;;;5067023;28;20233;-51
2022/02/04 09:37:53;;;;;;;12.75;7.65;;;12.80;80.50;;;;;;5067245;28;21464;-52
2022/02/04 09:40:20;;;;;;;13.15;8.00;;;13.20;80.90;;;;;;5067367;28;20028;-51
2022/02/04 09:42:47;;;;;;;22.77;16.73;;;13.40;81.60;;;;;;5069679;28;20056;-51
2022/02/04 09:45:16;;;;;;;11.90;7.68;;;12.80;82.40;;;;;;5066558;28;20032;-51
2022/02/04 09:47:47;;;;;;;11.13;7.20;;;12.80;81.10;;;;;;5069865;28;20020;-51
2022/02/04 09:50:18;;;;;;;13.93;8.83;;;12.60;81.40;;;;;;5062706;28;20032;-51
2022/02/04 10:09:45;;;;;;;13.38;7.97;;;12.80;82.60;;;;;;5066082;28;20483;-51
2022/02/04 10:12:35;;;;;;;21.23;14.25;;;13.50;84.30;;;;;;5069191;28;20036;-53
2022/02/04 10:18:00;;;;;;;16.63;9.52;;;14.50;81.50;;;;;;5063030;28;20090;-50
2022/02/04 10:20:26;;;;;;;14.77;9.98;;;14.40;81.10;;;;;;5066175;28;20070;-52
2022/02/04 10:22:52;;;;;;;19.23;13.98;;;14.40;79.90;;;;;;5070139;28;20029;-53
2022/02/04 10:25:19;;;;;;;15.68;10.30;;;15.10;81.60;;;;;;5066378;28;20146;-51
2022/02/04 10:27:46;;;;;;;12.82;10.98;;;15.80;80.00;;;;;;5069498;28;20048;-50
2022/02/04 10:30:17;;;;;;;13.43;8.80;;;16.80;81.60;;;;;;5068652;28;20051;-45
2022/02/04 10:32:48;;;;;;;27.23;13.65;;;17.10;77.40;;;;;;5066496;28;20028;-49
2022/02/04 10:35:22;;;;;;;21.38;13.32;;;17.70;77.20;;;;;;5065684;28;20055;-48
2022/02/04 10:38:15;;;;;;;19.73;11.68;;;17.20;75.30;;;;;;5067668;28;20096;-49
2022/02/04 10:40:52;;;;;;;16.23;9.95;;;17.50;75.50;;;;;;5066429;28;20043;-48
2022/02/04 11:01:58;;;;;;;18.60;12.77;;;17.90;74.00;;;;;;5064449;28;20052;-48
2022/02/04 11:43:54;;;;;;;14.15;9.95;;;19.10;71.00;;;;;;5030460;28;20052;-50
2022/02/04 11:52:25;;;;;;;13.90;10.57;;;;;;;;;;5030715;28;20084;-50
2022/02/04 11:54:55;;;;;;;;;;;19.80;67.20;;;;;;5023339;28;20062;-50
2022/02/04 11:57:23;;;;;;;15.48;10.80;;;19.90;68.20;;;;;;5017392;28;20548;-50
2022/02/04 11:59:52;;;;;;;14.00;10.70;;;20.40;68.60;;;;;;5018589;28;20042;-50
2022/02/04 12:05:07;;;;;;;11.77;9.43;;;20.60;67.30;;;;;;5072678;28;20372;-50
2022/02/04 12:07:41;;;;;;;11.00;8.90;;;20.50;67.80;;;;;;5073946;28;20458;-50
2022/02/04 12:10:13;;;;;;;6.25;5.40;;;21.00;67.10;;;;;;5071070;28;20067;-51
2022/02/04 12:13:00;;;;;;;;;;;20.80;64.20;;;;;;5070838;28;20032;-51
2022/02/04 12:17:59;;;;;;;7.10;4.35;;;20.30;66.10;;;;;;5068342;28;20093;-52
2022/02/04 12:20:44;;;;;;;8.43;5.00;;;20.40;66.40;;;;;;5070303;28;20029;-50
2022/02/04 12:23:33;;;;;;;13.52;5.43;;;20.30;65.10;;;;;;5070232;28;20350;-51
2022/02/04 12:26:01;;;;;;;8.18;5.60;;;21.00;66.70;;;;;;5028295;28;20053;-51
2022/02/04 12:28:48;;;;;;;7.60;5.60;;;20.80;66.00;;;;;;5030004;28;20064;-51
2022/02/04 12:31:20;;;;;;;7.82;4.90;;;20.30;66.00;;;;;;5024249;28;20111;-51
2022/02/04 12:34:02;;;;;;;9.05;5.88;;;20.80;67.30;;;;;;5028135;28;20095;-50
2022/02/04 12:36:31;;;;;;;7.30;5.10;;;20.60;66.30;;;;;;5028961;28;20387;-50
2022/02/04 12:39:00;;;;;;;7.35;4.50;;;20.50;65.90;;;;;;5028746;28;20083;-50
2022/02/04 12:41:33;;;;;;;7.50;4.88;;;20.30;66.20;;;;;;5030281;28;20026;-50
2022/02/04 12:44:05;;;;;;;8.25;4.88;;;20.30;66.90;;;;;;5012787;28;20129;-50
2022/02/04 12:46:31;;;;;;;8.00;4.63;;;20.20;67.10;;;;;;5026626;28;20026;-50
2022/02/04 12:49:06;;;;;;;7.45;4.80;;;19.90;67.10;;;;;;5025442;28;20036;-50
2022/02/04 12:55:04;;;;;;;7.38;3.67;;;19.80;67.40;;;;;;4988520;28;20050;-50
2022/02/04 13:11:08;;;;;;;5.47;3.83;;;19.70;67.40;;;;;;4952375;28;20035;-51
2022/02/04 13:13:47;;;;;;;8.85;4.28;;;19.50;67.70;;;;;;4951171;28;20050;-51
2022/02/04 13:16:15;;;;;;;8.65;5.20;;;19.60;67.50;;;;;;4952620;29;20641;-50
2022/02/04 13:18:41;;;;;;;12.52;8.48;;;19.60;67.60;;;;;;4952001;28;20035;-50
2022/02/04 13:21:07;;;;;;;7.60;4.50;;;19.80;68.10;;;;;;4952181;28;20070;-50
2022/02/04 13:23:33;;;;;;;9.43;6.03;;;20.00;67.40;;;;;;4951632;28;20126;-51
2022/02/04 13:26:05;;;;;;;9.75;5.70;;;19.90;67.00;;;;;;4951465;29;20118;-50
2022/02/04 13:28:37;;;;;;;12.20;6.93;;;19.70;68.00;;;;;;4951993;28;20086;-51
2022/02/04 13:31:11;;;;;;;10.15;5.97;;;19.80;68.10;;;;;;4966774;28;20030;-51
2022/02/04 13:33:41;;;;;;;7.07;4.10;;;20.00;67.50;;;;;;4932709;29;20040;-50
2022/02/04 13:41:40;;;;;;;6.43;4.13;;;20.00;68.10;;;;;;4914933;29;20059;-51
2022/02/04 13:47:45;;;;;;;8.40;6.22;;;19.80;67.20;;;;;;4919835;28;20048;-50
2022/02/04 14:03:43;;;;;;;10.18;7.57;;;19.50;67.20;;;;;;4991496;28;20109;-51
2022/02/04 14:06:14;;;;;;;7.07;4.82;;;20.00;67.20;;;;;;5010306;28;20045;-51
2022/02/04 14:11:29;;;;;;;10.65;6.95;;;19.60;66.50;;;;;;5010713;28;20045;-48
2022/02/04 14:13:55;;;;;;;9.77;6.10;;;19.10;67.50;;;;;;5011565;28;20592;-51
2022/02/04 14:16:22;;;;;;;10.73;6.25;;;19.10;68.00;;;;;;4992383;28;20054;-50
2022/02/04 14:18:48;;;;;;;9.68;6.18;;;19.00;68.70;;;;;;5024632;28;20075;-49
2022/02/04 14:21:16;;;;;;;9.32;4.88;;;18.90;68.20;;;;;;4991511;28;20137;-47
2022/02/04 14:23:46;;;;;;;14.80;7.25;;;18.70;68.20;;;;;;5030376;28;20111;-49
2022/02/04 14:26:36;;;;;;;7.72;4.50;;;18.70;68.50;;;;;;5047488;28;20037;-50
2022/02/04 14:29:26;;;;;;;6.30;3.63;;;18.50;68.20;;;;;;5070754;28;20093;-50
2022/02/04 14:32:03;;;;;;;13.80;7.72;;;18.60;69.20;;;;;;5068126;28;20038;-50
2022/02/04 14:34:55;;;;;;;7.20;4.35;;;18.50;69.20;;;;;;5070904;28;20064;-50
2022/02/04 14:54:01;;;;;;;7.20;4.10;;;17.60;69.60;;;;;;5070560;28;20052;-51
2022/02/04 15:00:03;;;;;;;8.02;4.32;;;17.40;70.20;;;;;;5070095;28;20040;-51
2022/02/04 15:02:10;;;;;;;9.43;6.93;;;17.10;70.40;;;;;;5070644;28;20531;-50
2022/02/04 15:04:49;;;;;;;85.00;49.72;;;17.30;71.30;;;;;;5067294;28;21052;-50
2022/02/04 15:07:15;;;;;;;45.20;27.60;;;17.30;71.10;;;;;;5069246;28;20032;-50
2022/02/04 15:09:51;;;;;;;39.45;24.23;;;17.20;70.20;;;;;;5068490;28;20056;-49
2022/02/04 15:12:16;;;;;;;69.65;41.20;;;17.20;70.70;;;;;;5068684;28;20032;-50
2022/02/04 15:14:42;;;;;;;62.42;41.40;;;17.10;71.80;;;;;;5072813;28;20036;-51
2022/02/04 15:17:08;;;;;;;47.78;34.22;;;17.00;71.30;;;;;;5069829;28;20028;-51
2022/02/04 15:19:35;;;;;;;66.55;49.10;;;17.00;71.30;;;;;;5070711;28;20028;-49
2022/02/04 15:22:03;;;;;;;88.05;63.53;;;16.80;71.00;;;;;;5033016;28;20098;-51
2022/02/04 15:24:29;;;;;;;64.50;46.88;;;16.50;71.50;;;;;;5067541;28;20082;-50
2022/02/04 15:26:55;;;;;;;45.25;30.52;;;16.30;72.00;;;;;;5035384;28;20048;-50
2022/02/04 15:29:21;;;;;;;19.20;12.40;;;16.20;72.30;;;;;;5071242;28;20381;-49
2022/02/04 15:32:04;;;;;;;74.40;42.40;;;15.90;73.70;;;;;;5049244;28;20538;-50
2022/02/04 15:34:31;;;;;;;61.95;33.13;;;15.70;74.80;;;;;;5070521;28;20078;-50
2022/02/04 15:36:57;;;;;;;27.25;14.52;;;15.40;76.00;;;;;;5053964;28;20052;-49
2022/02/04 15:39:26;;;;;;;18.73;12.30;;;15.30;75.40;;;;;;5025504;28;20492;-49
2022/02/04 15:41:54;;;;;;;16.95;13.63;;;15.30;75.30;;;;;;5065936;28;20493;-49
2022/02/04 15:44:36;;;;;;;18.05;13.77;;;15.10;75.90;;;;;;5070538;28;20031;-49
2022/02/04 15:52:48;;;;;;;19.92;11.63;;;14.70;78.00;;;;;;5070371;28;20063;-50
2022/02/04 16:03:37;;;;;;;34.30;26.98;;;13.40;82.60;;;;;;4993542;28;20048;-49
2022/02/04 16:06:07;;;;;;;35.15;27.65;;;13.30;83.10;;;;;;5020026;28;20425;-50
2022/02/04 16:08:33;;;;;;;43.97;33.67;;;13.10;83.50;;;;;;5027155;28;20034;-50
2022/02/04 16:13:54;;;;;;;104.57;75.18;;;12.90;84.10;;;;;;4994178;28;20045;-49
2022/02/04 16:16:25;;;;;;;89.25;59.35;;;12.70;84.60;;;;;;4993679;28;20042;-49
2022/02/04 16:22:06;;;;;;;36.20;19.98;;;12.60;84.70;;;;;;4886143;29;20057;-50
2022/02/04 16:29:58;;;;;;;47.67;31.73;;;12.30;84.40;;;;;;4935515;29;20020;-50
2022/02/04 16:32:24;;;;;;;148.52;90.75;;;12.20;84.40;;;;;;4935744;29;20039;-50
2022/02/04 16:34:56;;;;;;;80.97;53.22;;;12.10;84.70;;;;;;4931532;29;20089;-50
2022/02/04 16:37:31;;;;;;;33.88;21.52;;;12.10;84.60;;;;;;4933952;29;20071;-49
2022/02/04 16:39:58;;;;;;;33.80;21.95;;;12.10;84.60;;;;;;4933960;29;20082;-49
2022/02/04 16:42:24;;;;;;;34.50;22.33;;;12.10;84.80;;;;;;4933997;29;20036;-49
2022/02/04 16:44:50;;;;;;;49.80;30.58;;;12.10;85.10;;;;;;4934405;29;20400;-50
2022/02/04 16:47:16;;;;;;;48.40;28.17;;;12.00;84.90;;;;;;4933828;29;20027;-50
2022/02/04 16:49:42;;;;;;;34.15;21.70;;;12.00;85.10;;;;;;4932442;28;20173;-48
2022/02/04 16:52:08;;;;;;;26.05;16.65;;;11.90;85.30;;;;;;4955874;28;20055;-49
2022/02/04 16:54:35;;;;;;;31.70;20.75;;;11.80;85.60;;;;;;4968321;28;20151;-48
2022/02/04 16:57:02;;;;;;;275.80;189.35;;;11.70;85.80;;;;;;4973685;28;20073;-49
2022/02/04 16:59:28;;;;;;;108.05;82.43;;;11.70;86.10;;;;;;5071101;28;20060;-48
2022/02/04 17:01:54;;;;;;;80.10;58.65;;;11.70;86.20;;;;;;5052129;28;20087;-48
2022/02/04 17:04:20;;;;;;;30.67;22.23;;;11.70;86.20;;;;;;5068626;28;20122;-49
2022/02/04 17:06:54;;;;;;;36.08;24.83;;;11.60;86.40;;;;;;5030050;28;20108;-48
2022/02/04 17:09:23;;;;;;;40.63;28.52;;;11.50;86.60;;;;;;5066596;28;20095;-48
2022/02/04 17:11:51;;;;;;;37.55;24.00;;;11.50;86.80;;;;;;5069509;28;20033;-51
2022/02/04 17:14:17;;;;;;;47.53;28.77;;;11.40;87.00;;;;;;5070049;28;20396;-48
2022/02/04 17:16:44;;;;;;;36.75;23.83;;;11.20;87.40;;;;;;5069996;28;20533;-48
2022/02/04 17:19:18;;;;;;;52.30;34.63;;;11.10;87.90;;;;;;5017737;28;20562;-49
2022/02/04 17:21:44;;;;;;;33.45;23.83;;;11.00;88.10;;;;;;5020236;28;20085;-49
2022/02/04 17:24:13;;;;;;;51.85;34.53;;;11.00;88.60;;;;;;4987023;28;20067;-49
2022/02/04 17:26:40;;;;;;;35.53;20.20;;;10.90;88.90;;;;;;5013518;28;20072;-49
2022/02/04 17:29:10;;;;;;;37.10;26.35;;;10.90;88.90;;;;;;5015887;28;20030;-48
2022/02/04 17:31:36;;;;;;;46.13;29.98;;;10.80;89.50;;;;;;5007575;28;20184;-49
2022/02/04 17:34:03;;;;;;;46.08;32.55;;;10.70;89.30;;;;;;5015511;28;20120;-51
2022/02/04 17:36:34;;;;;;;32.08;24.05;;;10.60;88.80;;;;;;5006104;28;20149;-48
2022/02/04 17:39:01;;;;;;;27.95;20.15;;;10.60;88.50;;;;;;5006806;28;20070;-51
2022/02/04 17:41:28;;;;;;;26.35;19.42;;;10.60;88.10;;;;;;5011834;28;20484;-55
2022/02/04 17:43:55;;;;;;;26.58;17.50;;;10.60;87.80;;;;;;5028439;28;20132;-50
2022/02/04 17:46:26;;;;;;;26.65;17.88;;;10.50;88.00;;;;;;5009037;28;20065;-53
2022/02/04 17:49:04;;;;;;;34.28;24.38;;;10.50;88.20;;;;;;5007273;28;20034;-50
2022/02/04 17:51:41;;;;;;;31.42;23.27;;;10.30;88.80;;;;;;5069671;28;20132;-50
2022/02/04 17:54:10;;;;;;;36.47;22.98;;;10.20;89.50;;;;;;5071791;28;20510;-49
2022/02/04 17:59:35;;;;;;;33.15;22.23;;;9.80;90.60;;;;;;5040625;28;20481;-48
2022/02/04 18:09:39;;;;;;;;;;;9.20;91.90;;;;;;5071363;28;20032;-49
2022/02/04 18:12:05;;;;;;;31.55;19.02;;;9.30;91.80;;;;;;5069938;28;20264;-49
2022/02/04 18:14:31;;;;;;;28.08;16.30;;;9.30;91.80;;;;;;5072184;28;20020;-53
2022/02/04 18:16:57;;;;;;;41.63;20.73;;;9.30;92.10;;;;;;5068699;28;20396;-47
2022/02/04 18:19:23;;;;;;;39.85;19.55;;;9.20;92.30;;;;;;5067508;28;20384;-47
2022/02/04 18:21:49;;;;;;;39.05;21.63;;;9.10;92.60;;;;;;5049973;28;20040;-47
2022/02/04 18:24:15;;;;;;;45.10;24.38;;;9.10;92.80;;;;;;5068208;28;20075;-51
2022/02/04 18:26:41;;;;;;;53.78;32.33;;;8.90;93.00;;;;;;5043738;28;20033;-50
2022/02/04 18:29:07;;;;;;;53.40;30.90;;;;;;;;;;5009916;28;20045;-49
2022/02/04 18:31:34;;;;;;;50.05;29.17;;;8.80;99.90;;;;;;5066006;28;20089;-49
2022/02/04 18:34:09;;;;;;;46.70;26.92;;;8.80;94.60;;;;;;5069702;28;20036;-49
2022/02/04 18:36:35;;;;;;;36.13;23.95;;;8.70;93.90;;;;;;5066815;28;20028;-49
2022/02/04 18:44:51;;;;;;;30.30;18.90;;;8.80;93.90;;;;;;5011571;28;20047;-49
2022/02/04 18:47:34;;;;;;;26.30;18.42;;;8.80;93.80;;;;;;5028150;28;20705;-49
2022/02/04 18:50:18;;;;;;;29.13;18.48;;;8.80;93.90;;;;;;5028214;28;20465;-49
2022/02/04 18:53:07;;;;;;;27.50;19.27;;;8.80;93.90;;;;;;5028349;28;20053;-48
2022/02/04 18:58:19;;;;;;;28.08;19.08;;;8.80;93.90;;;;;;5028064;28;20579;-49
2022/02/04 19:00:47;;;;;;;28.90;18.88;;;8.80;94.10;;;;;;5027973;28;20048;-49
2022/02/04 19:03:20;;;;;;;32.65;19.85;;;8.60;94.40;;;;;;5027819;28;20636;-49
2022/02/04 19:06:04;;;;;;;30.33;18.38;;;8.60;94.60;;;;;;5028808;28;20064;-49
2022/02/04 19:08:36;;;;;;;64.35;41.20;;;8.60;94.50;;;;;;5028543;28;20037;-48
2022/02/04 19:11:02;;;;;;;157.30;81.65;;;8.40;94.90;;;;;;5028524;28;20042;-50
2022/02/04 19:13:39;;;;;;;53.75;31.92;;;;;;;;;;5011757;28;20038;-48
2022/02/04 19:16:22;;;;;;;42.55;26.27;;;7.80;96.30;;;;;;4998777;28;20468;-48
2022/02/04 19:21:32;;;;;;;73.82;46.28;;;7.30;98.40;;;;;;5069934;28;20040;-48
2022/02/04 19:23:58;;;;;;;177.60;96.65;;;7.20;98.80;;;;;;5066201;28;20037;-49
2022/02/04 19:26:26;;;;;;;63.28;36.72;;;7.20;99.10;;;;;;5035004;28;20056;-48
2022/02/04 19:28:52;;;;;;;43.17;26.40;;;7.10;99.60;;;;;;5033271;28;20488;-49
2022/02/04 19:31:18;;;;;;;39.75;23.75;;;7.00;99.90;;;;;;5066057;28;20033;-49
2022/02/04 19:33:46;;;;;;;143.02;65.25;;;7.00;99.90;;;;;;5069638;28;21324;-49
2022/02/04 19:36:13;;;;;;;58.15;30.63;;;7.00;99.90;;;;;;5065012;28;20033;-49
2022/02/04 19:38:39;;;;;;;82.53;41.83;;;7.00;99.90;;;;;;5066226;28;20041;-50
2022/02/04 19:41:07;;;;;;;32.47;18.58;;;6.60;99.90;;;;;;5071237;28;20094;-49
2022/02/04 19:43:35;;;;;;;34.08;23.15;;;6.60;99.90;;;;;;5050480;28;20064;-48
2022/02/04 19:46:09;;;;;;;36.75;21.95;;;6.60;99.90;;;;;;5067018;28;20520;-48
2022/02/04 19:48:38;;;;;;;30.85;21.27;;;6.60;99.90;;;;;;5071490;28;20450;-48
2022/02/04 19:51:24;;;;;;;36.78;21.77;;;6.50;99.90;;;;;;5071734;28;20435;-48
2022/02/04 20:25:48;;;;;;;61.97;37.28;;;5.80;99.90;;;;;;5071115;28;20113;-49
2022/02/04 20:28:16;;;;;;;67.80;39.30;;;5.70;99.90;;;;;;5073339;28;20379;-49
2022/02/04 20:30:44;;;;;;;73.72;41.58;;;5.70;99.90;;;;;;5071752;28;20120;-49
2022/02/04 20:33:11;;;;;;;64.10;33.58;;;5.70;99.90;;;;;;5067870;28;20476;-49
2022/02/04 20:35:38;;;;;;;96.45;58.20;;;5.60;99.90;;;;;;5064970;28;20103;-49
2022/02/04 20:38:05;;;;;;;73.40;42.17;;;5.50;99.90;;;;;;4992720;28;20041;-49
2022/02/04 20:40:37;;;;;;;43.55;26.83;;;;;;;;;;5069959;28;20460;-49
2022/02/04 20:43:03;;;;;;;33.63;15.10;;;5.30;99.90;;;;;;5072619;28;20024;-48
2022/02/04 20:45:29;;;;;;;30.70;16.15;;;;;;;;;;5069918;28;20032;-48
2022/02/04 20:47:57;;;;;;;29.80;17.02;;;5.00;99.90;;;;;;5070559;28;20511;-44